sensor_id;sensor_type;location;lat;lon;timestamp;P1;durP1;ratioP1;P2;durP2;ratioP2
48052;SDS011;33824;51.600;5.718;2023-01-09T00:02:08;0.88;;;0.40;;
48052;SDS011;33824;51.600;5.718;2023-01-09T00:04:34;1.08;;;0.35;;
48052;SDS011;33824;51.600;5.718;2023-01-09T00:06:59;1.65;;;0.30;;
48052;SDS011;33824;51.600;5.718;2023-01-09T00:09:25;0.68;;;0.20;;
48052;SDS011;33824;51.600;5.718;2023-01-09T00:11:51;0.82;;;0.30;;
48052;SDS011;33824;51.600;5.718;2023-01-09T00:14:18;2.63;;;0.28;;
48052;SDS011;33824;51.600;5.718;2023-01-09T00:16:45;0.50;;;0.30;;
48052;SDS011;33824;51.600;5.718;2023-01-09T00:19:10;0.60;;;0.30;;
48052;SDS011;33824;51.600;5.718;2023-01-09T00:21:37;0.55;;;0.20;;
48052;SDS011;33824;51.600;5.718;2023-01-09T00:24:02;1.17;;;0.40;;
48052;SDS011;33824;51.600;5.718;2023-01-09T00:26:28;1.58;;;0.45;;
48052;SDS011;33824;51.600;5.718;2023-01-09T00:28:54;1.48;;;0.40;;
48052;SDS011;33824;51.600;5.718;2023-01-09T00:31:20;1.02;;;0.40;;
48052;SDS011;33824;51.600;5.718;2023-01-09T00:33:57;0.60;;;0.40;;
48052;SDS011;33824;51.600;5.718;2023-01-09T00:36:26;1.13;;;0.40;;
48052;SDS011;33824;51.600;5.718;2023-01-09T00:38:52;2.45;;;0.40;;
48052;SDS011;33824;51.600;5.718;2023-01-09T00:41:29;0.80;;;0.43;;
48052;SDS011;33824;51.600;5.718;2023-01-09T00:44:07;1.27;;;0.52;;
48052;SDS011;33824;51.600;5.718;2023-01-09T00:46:38;1.35;;;0.70;;
48052;SDS011;33824;51.600;5.718;2023-01-09T00:49:08;2.20;;;0.45;;
48052;SDS011;33824;51.600;5.718;2023-01-09T00:51:36;2.13;;;0.40;;
48052;SDS011;33824;51.600;5.718;2023-01-09T00:54:05;4.05;;;0.40;;
48052;SDS011;33824;51.600;5.718;2023-01-09T00:56:31;3.20;;;0.40;;
48052;SDS011;33824;51.600;5.718;2023-01-09T00:59:00;1.13;;;0.50;;
48052;SDS011;33824;51.600;5.718;2023-01-09T01:01:26;1.10;;;0.50;;
48052;SDS011;33824;51.600;5.718;2023-01-09T01:03:52;2.45;;;0.50;;
48052;SDS011;33824;51.600;5.718;2023-01-09T01:06:18;1.60;;;0.65;;
48052;SDS011;33824;51.600;5.718;2023-01-09T01:09:02;1.55;;;0.47;;
48052;SDS011;33824;51.600;5.718;2023-01-09T01:11:30;0.60;;;0.50;;
48052;SDS011;33824;51.600;5.718;2023-01-09T01:13:57;2.63;;;0.70;;
48052;SDS011;33824;51.600;5.718;2023-01-09T01:16:23;1.30;;;0.57;;
48052;SDS011;33824;51.600;5.718;2023-01-09T01:18:48;3.88;;;0.63;;
48052;SDS011;33824;51.600;5.718;2023-01-09T01:21:15;4.88;;;0.93;;
48052;SDS011;33824;51.600;5.718;2023-01-09T01:23:40;4.15;;;0.50;;
48052;SDS011;33824;51.600;5.718;2023-01-09T01:26:08;1.60;;;0.50;;
48052;SDS011;33824;51.600;5.718;2023-01-09T01:28:35;1.63;;;0.50;;
48052;SDS011;33824;51.600;5.718;2023-01-09T01:31:00;3.05;;;0.60;;
48052;SDS011;33824;51.600;5.718;2023-01-09T01:33:26;1.02;;;0.45;;
48052;SDS011;33824;51.600;5.718;2023-01-09T01:36:00;1.08;;;0.70;;
48052;SDS011;33824;51.600;5.718;2023-01-09T01:38:30;3.78;;;0.70;;
48052;SDS011;33824;51.600;5.718;2023-01-09T01:40:58;4.68;;;0.50;;
48052;SDS011;33824;51.600;5.718;2023-01-09T01:43:24;2.63;;;0.60;;
48052;SDS011;33824;51.600;5.718;2023-01-09T01:45:50;2.05;;;0.70;;
48052;SDS011;33824;51.600;5.718;2023-01-09T01:48:17;1.85;;;0.60;;
48052;SDS011;33824;51.600;5.718;2023-01-09T01:50:50;0.90;;;0.52;;
48052;SDS011;33824;51.600;5.718;2023-01-09T01:53:27;1.02;;;0.60;;
48052;SDS011;33824;51.600;5.718;2023-01-09T01:56:13;4.63;;;0.88;;
48052;SDS011;33824;51.600;5.718;2023-01-09T01:58:52;2.05;;;0.80;;
48052;SDS011;33824;51.600;5.718;2023-01-09T02:01:21;3.25;;;0.93;;
48052;SDS011;33824;51.600;5.718;2023-01-09T02:03:50;1.98;;;0.75;;
48052;SDS011;33824;51.600;5.718;2023-01-09T02:06:19;2.10;;;0.60;;
48052;SDS011;33824;51.600;5.718;2023-01-09T02:08:45;0.90;;;0.55;;
48052;SDS011;33824;51.600;5.718;2023-01-09T02:11:11;4.80;;;0.50;;
48052;SDS011;33824;51.600;5.718;2023-01-09T02:13:38;2.38;;;0.60;;
48052;SDS011;33824;51.600;5.718;2023-01-09T02:22:11;5.20;;;0.70;;
48052;SDS011;33824;51.600;5.718;2023-01-09T02:25:10;3.45;;;0.80;;
48052;SDS011;33824;51.600;5.718;2023-01-09T02:42:31;3.53;;;0.75;;
48052;SDS011;33824;51.600;5.718;2023-01-09T02:45:00;2.15;;;0.60;;
48052;SDS011;33824;51.600;5.718;2023-01-09T02:49:55;1.80;;;0.52;;
48052;SDS011;33824;51.600;5.718;2023-01-09T02:57:53;3.08;;;0.88;;
48052;SDS011;33824;51.600;5.718;2023-01-09T03:03:31;2.42;;;1.05;;
48052;SDS011;33824;51.600;5.718;2023-01-09T03:08:51;4.55;;;0.82;;
48052;SDS011;33824;51.600;5.718;2023-01-09T03:11:20;3.72;;;0.98;;
48052;SDS011;33824;51.600;5.718;2023-01-09T03:13:48;4.18;;;1.10;;
48052;SDS011;33824;51.600;5.718;2023-01-09T03:16:19;5.65;;;1.10;;
48052;SDS011;33824;51.600;5.718;2023-01-09T03:18:48;6.90;;;1.30;;
48052;SDS011;33824;51.600;5.718;2023-01-09T03:21:16;2.58;;;1.10;;
48052;SDS011;33824;51.600;5.718;2023-01-09T03:23:44;2.75;;;1.13;;
48052;SDS011;33824;51.600;5.718;2023-01-09T03:26:14;2.65;;;1.05;;
48052;SDS011;33824;51.600;5.718;2023-01-09T03:28:40;8.23;;;1.90;;
48052;SDS011;33824;51.600;5.718;2023-01-09T03:31:06;4.30;;;1.30;;
48052;SDS011;33824;51.600;5.718;2023-01-09T03:33:32;4.00;;;1.20;;
48052;SDS011;33824;51.600;5.718;2023-01-09T03:35:58;5.40;;;1.10;;
48052;SDS011;33824;51.600;5.718;2023-01-09T03:38:23;4.63;;;1.30;;
48052;SDS011;33824;51.600;5.718;2023-01-09T03:40:49;3.58;;;1.10;;
48052;SDS011;33824;51.600;5.718;2023-01-09T03:43:15;1.88;;;0.90;;
48052;SDS011;33824;51.600;5.718;2023-01-09T03:45:41;4.53;;;1.40;;
48052;SDS011;33824;51.600;5.718;2023-01-09T03:48:07;5.85;;;1.10;;
48052;SDS011;33824;51.600;5.718;2023-01-09T03:50:33;2.53;;;1.00;;
48052;SDS011;33824;51.600;5.718;2023-01-09T03:52:59;8.38;;;1.13;;
48052;SDS011;33824;51.600;5.718;2023-01-09T03:55:25;2.95;;;1.15;;
48052;SDS011;33824;51.600;5.718;2023-01-09T03:57:50;3.40;;;1.13;;
48052;SDS011;33824;51.600;5.718;2023-01-09T04:00:18;3.78;;;0.90;;
48052;SDS011;33824;51.600;5.718;2023-01-09T04:02:44;3.55;;;0.90;;
48052;SDS011;33824;51.600;5.718;2023-01-09T04:05:10;2.35;;;1.08;;
48052;SDS011;33824;51.600;5.718;2023-01-09T04:07:36;2.88;;;0.85;;
48052;SDS011;33824;51.600;5.718;2023-01-09T04:10:02;1.85;;;0.90;;
48052;SDS011;33824;51.600;5.718;2023-01-09T04:12:27;2.97;;;1.10;;
48052;SDS011;33824;51.600;5.718;2023-01-09T04:14:55;1.92;;;1.00;;
48052;SDS011;33824;51.600;5.718;2023-01-09T04:17:22;4.15;;;1.20;;
48052;SDS011;33824;51.600;5.718;2023-01-09T04:19:48;2.25;;;1.08;;
48052;SDS011;33824;51.600;5.718;2023-01-09T04:22:13;7.20;;;2.17;;
48052;SDS011;33824;51.600;5.718;2023-01-09T04:24:39;4.18;;;0.77;;
48052;SDS011;33824;51.600;5.718;2023-01-09T04:27:04;1.70;;;0.80;;
48052;SDS011;33824;51.600;5.718;2023-01-09T04:29:30;4.38;;;1.20;;
48052;SDS011;33824;51.600;5.718;2023-01-09T04:31:55;5.90;;;1.30;;
48052;SDS011;33824;51.600;5.718;2023-01-09T04:34:21;6.03;;;0.80;;
48052;SDS011;33824;51.600;5.718;2023-01-09T04:36:50;4.28;;;0.85;;
48052;SDS011;33824;51.600;5.718;2023-01-09T04:39:17;6.75;;;0.73;;
48052;SDS011;33824;51.600;5.718;2023-01-09T04:41:42;6.63;;;1.10;;
48052;SDS011;33824;51.600;5.718;2023-01-09T04:44:16;5.85;;;1.00;;
48052;SDS011;33824;51.600;5.718;2023-01-09T04:46:45;2.00;;;0.60;;
48052;SDS011;33824;51.600;5.718;2023-01-09T04:49:11;4.93;;;1.00;;
48052;SDS011;33824;51.600;5.718;2023-01-09T04:51:37;6.85;;;0.85;;
48052;SDS011;33824;51.600;5.718;2023-01-09T04:54:03;3.20;;;1.13;;
48052;SDS011;33824;51.600;5.718;2023-01-09T04:56:29;8.15;;;1.08;;
48052;SDS011;33824;51.600;5.718;2023-01-09T04:58:55;6.00;;;1.27;;
48052;SDS011;33824;51.600;5.718;2023-01-09T05:01:20;4.75;;;1.00;;
48052;SDS011;33824;51.600;5.718;2023-01-09T05:03:46;11.38;;;2.15;;
48052;SDS011;33824;51.600;5.718;2023-01-09T05:06:11;3.53;;;1.00;;
48052;SDS011;33824;51.600;5.718;2023-01-09T05:08:37;5.30;;;1.10;;
48052;SDS011;33824;51.600;5.718;2023-01-09T05:11:02;4.53;;;1.40;;
48052;SDS011;33824;51.600;5.718;2023-01-09T05:13:28;8.98;;;1.25;;
48052;SDS011;33824;51.600;5.718;2023-01-09T05:15:54;2.72;;;0.90;;
48052;SDS011;33824;51.600;5.718;2023-01-09T05:18:21;4.63;;;0.85;;
48052;SDS011;33824;51.600;5.718;2023-01-09T05:20:47;6.45;;;1.10;;
48052;SDS011;33824;51.600;5.718;2023-01-09T05:23:13;1.48;;;0.75;;
48052;SDS011;33824;51.600;5.718;2023-01-09T05:25:38;6.88;;;0.77;;
48052;SDS011;33824;51.600;5.718;2023-01-09T05:28:04;3.33;;;1.02;;
48052;SDS011;33824;51.600;5.718;2023-01-09T05:30:29;6.55;;;0.88;;
48052;SDS011;33824;51.600;5.718;2023-01-09T05:32:55;5.57;;;1.13;;
48052;SDS011;33824;51.600;5.718;2023-01-09T05:35:21;9.00;;;0.80;;
48052;SDS011;33824;51.600;5.718;2023-01-09T05:37:47;4.05;;;0.80;;
48052;SDS011;33824;51.600;5.718;2023-01-09T05:40:13;4.15;;;0.98;;
48052;SDS011;33824;51.600;5.718;2023-01-09T05:42:39;2.83;;;0.70;;
48052;SDS011;33824;51.600;5.718;2023-01-09T05:45:05;11.73;;;1.65;;
48052;SDS011;33824;51.600;5.718;2023-01-09T05:47:32;5.88;;;0.90;;
48052;SDS011;33824;51.600;5.718;2023-01-09T05:49:57;6.85;;;1.00;;
48052;SDS011;33824;51.600;5.718;2023-01-09T05:52:23;11.85;;;1.00;;
48052;SDS011;33824;51.600;5.718;2023-01-09T05:54:49;8.15;;;0.95;;
48052;SDS011;33824;51.600;5.718;2023-01-09T05:57:14;5.45;;;1.00;;
48052;SDS011;33824;51.600;5.718;2023-01-09T05:59:40;4.68;;;0.98;;
48052;SDS011;33824;51.600;5.718;2023-01-09T06:02:06;8.00;;;1.00;;
48052;SDS011;33824;51.600;5.718;2023-01-09T06:04:31;9.77;;;1.55;;
48052;SDS011;33824;51.600;5.718;2023-01-09T06:06:57;4.78;;;1.13;;
48052;SDS011;33824;51.600;5.718;2023-01-09T06:09:23;5.70;;;1.30;;
48052;SDS011;33824;51.600;5.718;2023-01-09T06:11:49;2.53;;;0.77;;
48052;SDS011;33824;51.600;5.718;2023-01-09T06:14:15;9.13;;;1.90;;
48052;SDS011;33824;51.600;5.718;2023-01-09T06:16:41;9.30;;;1.20;;
48052;SDS011;33824;51.600;5.718;2023-01-09T06:19:06;5.88;;;1.02;;
48052;SDS011;33824;51.600;5.718;2023-01-09T06:21:32;9.10;;;1.23;;
48052;SDS011;33824;51.600;5.718;2023-01-09T06:23:58;8.13;;;1.02;;
48052;SDS011;33824;51.600;5.718;2023-01-09T06:26:24;7.88;;;1.08;;
48052;SDS011;33824;51.600;5.718;2023-01-09T06:28:51;7.28;;;0.85;;
48052;SDS011;33824;51.600;5.718;2023-01-09T06:31:20;7.22;;;0.90;;
48052;SDS011;33824;51.600;5.718;2023-01-09T06:33:49;7.82;;;1.05;;
48052;SDS011;33824;51.600;5.718;2023-01-09T06:36:14;7.82;;;1.40;;
48052;SDS011;33824;51.600;5.718;2023-01-09T06:38:40;3.83;;;1.20;;
48052;SDS011;33824;51.600;5.718;2023-01-09T06:41:06;3.10;;;0.68;;
48052;SDS011;33824;51.600;5.718;2023-01-09T06:43:31;7.15;;;1.25;;
48052;SDS011;33824;51.600;5.718;2023-01-09T06:45:57;5.05;;;1.73;;
48052;SDS011;33824;51.600;5.718;2023-01-09T06:48:23;6.78;;;1.27;;
48052;SDS011;33824;51.600;5.718;2023-01-09T06:50:50;7.93;;;1.20;;
48052;SDS011;33824;51.600;5.718;2023-01-09T06:53:16;5.10;;;1.02;;
48052;SDS011;33824;51.600;5.718;2023-01-09T06:55:42;8.60;;;1.10;;
48052;SDS011;33824;51.600;5.718;2023-01-09T06:58:08;7.78;;;1.38;;
48052;SDS011;33824;51.600;5.718;2023-01-09T07:00:34;7.72;;;1.65;;
48052;SDS011;33824;51.600;5.718;2023-01-09T07:03:00;10.32;;;1.58;;
48052;SDS011;33824;51.600;5.718;2023-01-09T07:05:26;9.63;;;1.25;;
48052;SDS011;33824;51.600;5.718;2023-01-09T07:07:51;8.55;;;1.15;;
48052;SDS011;33824;51.600;5.718;2023-01-09T07:10:17;10.32;;;1.52;;
48052;SDS011;33824;51.600;5.718;2023-01-09T07:12:43;7.32;;;1.35;;
48052;SDS011;33824;51.600;5.718;2023-01-09T07:15:09;5.75;;;0.80;;
48052;SDS011;33824;51.600;5.718;2023-01-09T07:17:34;6.53;;;1.38;;
48052;SDS011;33824;51.600;5.718;2023-01-09T07:20:00;6.88;;;1.30;;
48052;SDS011;33824;51.600;5.718;2023-01-09T07:22:26;4.68;;;1.08;;
48052;SDS011;33824;51.600;5.718;2023-01-09T07:24:52;9.07;;;1.13;;
48052;SDS011;33824;51.600;5.718;2023-01-09T07:27:18;8.55;;;1.30;;
48052;SDS011;33824;51.600;5.718;2023-01-09T07:29:43;9.98;;;1.60;;
48052;SDS011;33824;51.600;5.718;2023-01-09T07:32:10;5.60;;;1.25;;
48052;SDS011;33824;51.600;5.718;2023-01-09T07:34:36;9.73;;;1.80;;
48052;SDS011;33824;51.600;5.718;2023-01-09T07:37:02;6.10;;;0.98;;
48052;SDS011;33824;51.600;5.718;2023-01-09T07:39:27;12.30;;;1.45;;
48052;SDS011;33824;51.600;5.718;2023-01-09T07:41:53;3.83;;;1.25;;
48052;SDS011;33824;51.600;5.718;2023-01-09T07:44:19;7.80;;;1.65;;
48052;SDS011;33824;51.600;5.718;2023-01-09T07:46:44;3.08;;;0.80;;
48052;SDS011;33824;51.600;5.718;2023-01-09T07:49:10;10.13;;;1.20;;
48052;SDS011;33824;51.600;5.718;2023-01-09T07:51:35;11.43;;;1.35;;
48052;SDS011;33824;51.600;5.718;2023-01-09T07:54:03;3.47;;;1.10;;
48052;SDS011;33824;51.600;5.718;2023-01-09T07:56:28;11.93;;;2.42;;
48052;SDS011;33824;51.600;5.718;2023-01-09T07:58:54;6.82;;;1.40;;
48052;SDS011;33824;51.600;5.718;2023-01-09T08:01:20;7.07;;;1.63;;
48052;SDS011;33824;51.600;5.718;2023-01-09T08:03:45;11.65;;;1.45;;
48052;SDS011;33824;51.600;5.718;2023-01-09T08:06:11;6.10;;;1.30;;
48052;SDS011;33824;51.600;5.718;2023-01-09T08:08:36;9.15;;;1.20;;
48052;SDS011;33824;51.600;5.718;2023-01-09T08:11:02;6.15;;;1.50;;
48052;SDS011;33824;51.600;5.718;2023-01-09T08:13:27;9.32;;;1.40;;
48052;SDS011;33824;51.600;5.718;2023-01-09T08:15:53;6.97;;;2.38;;
48052;SDS011;33824;51.600;5.718;2023-01-09T08:18:18;4.50;;;0.93;;
48052;SDS011;33824;51.600;5.718;2023-01-09T08:20:46;5.13;;;1.08;;
48052;SDS011;33824;51.600;5.718;2023-01-09T08:23:13;4.43;;;0.85;;
48052;SDS011;33824;51.600;5.718;2023-01-09T08:25:38;12.80;;;1.85;;
48052;SDS011;33824;51.600;5.718;2023-01-09T08:28:04;3.33;;;1.13;;
48052;SDS011;33824;51.600;5.718;2023-01-09T08:30:30;7.80;;;1.55;;
48052;SDS011;33824;51.600;5.718;2023-01-09T08:32:56;5.88;;;1.05;;
48052;SDS011;33824;51.600;5.718;2023-01-09T08:35:21;5.38;;;1.38;;
48052;SDS011;33824;51.600;5.718;2023-01-09T08:37:47;7.25;;;2.00;;
48052;SDS011;33824;51.600;5.718;2023-01-09T08:40:13;10.10;;;1.10;;
48052;SDS011;33824;51.600;5.718;2023-01-09T08:42:40;7.85;;;1.63;;
48052;SDS011;33824;51.600;5.718;2023-01-09T08:45:24;9.38;;;1.50;;
48052;SDS011;33824;51.600;5.718;2023-01-09T08:48:09;4.32;;;1.30;;
48052;SDS011;33824;51.600;5.718;2023-01-09T08:50:35;7.55;;;1.75;;
48052;SDS011;33824;51.600;5.718;2023-01-09T08:53:00;6.65;;;1.25;;
48052;SDS011;33824;51.600;5.718;2023-01-09T08:55:26;7.85;;;1.40;;
48052;SDS011;33824;51.600;5.718;2023-01-09T08:57:52;5.47;;;0.95;;
48052;SDS011;33824;51.600;5.718;2023-01-09T09:00:20;7.85;;;1.33;;
48052;SDS011;33824;51.600;5.718;2023-01-09T09:02:54;6.22;;;1.20;;
48052;SDS011;33824;51.600;5.718;2023-01-09T09:05:21;3.30;;;0.95;;
48052;SDS011;33824;51.600;5.718;2023-01-09T09:07:48;4.32;;;1.20;;
48052;SDS011;33824;51.600;5.718;2023-01-09T09:10:15;10.43;;;1.70;;
48052;SDS011;33824;51.600;5.718;2023-01-09T09:12:42;5.20;;;1.27;;
48052;SDS011;33824;51.600;5.718;2023-01-09T09:15:08;8.50;;;1.20;;
48052;SDS011;33824;51.600;5.718;2023-01-09T09:17:41;3.88;;;1.30;;
48052;SDS011;33824;51.600;5.718;2023-01-09T09:20:08;7.22;;;1.60;;
48052;SDS011;33824;51.600;5.718;2023-01-09T09:22:36;10.02;;;1.95;;
48052;SDS011;33824;51.600;5.718;2023-01-09T09:25:02;5.25;;;1.00;;
48052;SDS011;33824;51.600;5.718;2023-01-09T09:27:32;7.35;;;1.52;;
48052;SDS011;33824;51.600;5.718;2023-01-09T09:30:01;8.55;;;1.38;;
48052;SDS011;33824;51.600;5.718;2023-01-09T09:32:26;10.68;;;1.98;;
48052;SDS011;33824;51.600;5.718;2023-01-09T09:34:52;7.35;;;1.30;;
48052;SDS011;33824;51.600;5.718;2023-01-09T09:37:17;4.07;;;1.05;;
48052;SDS011;33824;51.600;5.718;2023-01-09T09:39:43;4.85;;;1.27;;
48052;SDS011;33824;51.600;5.718;2023-01-09T09:42:12;5.57;;;1.45;;
48052;SDS011;33824;51.600;5.718;2023-01-09T09:50:55;6.35;;;1.30;;
48052;SDS011;33824;51.600;5.718;2023-01-09T09:53:44;9.88;;;1.67;;
48052;SDS011;33824;51.600;5.718;2023-01-09T09:56:16;8.32;;;1.30;;
48052;SDS011;33824;51.600;5.718;2023-01-09T09:58:56;3.30;;;1.10;;
48052;SDS011;33824;51.600;5.718;2023-01-09T10:01:38;8.32;;;1.95;;
48052;SDS011;33824;51.600;5.718;2023-01-09T10:04:14;8.52;;;1.52;;
48052;SDS011;33824;51.600;5.718;2023-01-09T10:06:43;5.95;;;2.55;;
48052;SDS011;33824;51.600;5.718;2023-01-09T10:09:22;9.32;;;1.90;;
48052;SDS011;33824;51.600;5.718;2023-01-09T10:11:59;6.10;;;1.67;;
48052;SDS011;33824;51.600;5.718;2023-01-09T10:14:28;6.43;;;1.27;;
48052;SDS011;33824;51.600;5.718;2023-01-09T10:17:01;11.45;;;2.00;;
48052;SDS011;33824;51.600;5.718;2023-01-09T10:20:09;7.90;;;1.80;;
48052;SDS011;33824;51.600;5.718;2023-01-09T10:22:43;5.15;;;1.40;;
48052;SDS011;33824;51.600;5.718;2023-01-09T10:28:21;5.55;;;2.50;;
48052;SDS011;33824;51.600;5.718;2023-01-09T10:31:34;12.57;;;1.45;;
48052;SDS011;33824;51.600;5.718;2023-01-09T10:38:59;7.22;;;2.20;;
48052;SDS011;33824;51.600;5.718;2023-01-09T10:46:47;6.50;;;2.25;;
48052;SDS011;33824;51.600;5.718;2023-01-09T10:49:17;4.07;;;2.15;;
48052;SDS011;33824;51.600;5.718;2023-01-09T10:51:47;3.15;;;1.88;;
48052;SDS011;33824;51.600;5.718;2023-01-09T10:54:15;7.20;;;2.37;;
48052;SDS011;33824;51.600;5.718;2023-01-09T10:56:44;8.98;;;2.90;;
48052;SDS011;33824;51.600;5.718;2023-01-09T10:59:17;5.97;;;2.05;;
48052;SDS011;33824;51.600;5.718;2023-01-09T11:01:43;8.35;;;2.00;;
48052;SDS011;33824;51.600;5.718;2023-01-09T11:04:19;7.05;;;1.90;;
48052;SDS011;33824;51.600;5.718;2023-01-09T11:06:58;8.00;;;2.05;;
48052;SDS011;33824;51.600;5.718;2023-01-09T11:09:26;12.70;;;2.40;;
48052;SDS011;33824;51.600;5.718;2023-01-09T11:11:52;8.63;;;1.70;;
48052;SDS011;33824;51.600;5.718;2023-01-09T11:14:26;15.63;;;2.20;;
48052;SDS011;33824;51.600;5.718;2023-01-09T11:19:22;6.72;;;1.90;;
48052;SDS011;33824;51.600;5.718;2023-01-09T11:21:48;6.85;;;2.00;;
48052;SDS011;33824;51.600;5.718;2023-01-09T11:26:46;7.03;;;2.25;;
48052;SDS011;33824;51.600;5.718;2023-01-09T11:29:17;6.47;;;2.10;;
48052;SDS011;33824;51.600;5.718;2023-01-09T11:31:52;9.43;;;2.13;;
48052;SDS011;33824;51.600;5.718;2023-01-09T11:34:20;7.53;;;1.95;;
48052;SDS011;33824;51.600;5.718;2023-01-09T11:36:48;8.57;;;2.15;;
48052;SDS011;33824;51.600;5.718;2023-01-09T11:39:21;12.90;;;2.72;;
48052;SDS011;33824;51.600;5.718;2023-01-09T11:41:53;6.80;;;1.92;;
48052;SDS011;33824;51.600;5.718;2023-01-09T11:44:21;10.07;;;2.13;;
48052;SDS011;33824;51.600;5.718;2023-01-09T11:46:48;8.45;;;2.28;;
48052;SDS011;33824;51.600;5.718;2023-01-09T11:51:39;13.98;;;3.38;;
48052;SDS011;33824;51.600;5.718;2023-01-09T11:54:16;12.00;;;2.92;;
48052;SDS011;33824;51.600;5.718;2023-01-09T11:56:47;7.77;;;1.93;;
48052;SDS011;33824;51.600;5.718;2023-01-09T11:59:15;11.38;;;3.53;;
48052;SDS011;33824;51.600;5.718;2023-01-09T12:21:33;6.30;;;2.60;;
48052;SDS011;33824;51.600;5.718;2023-01-09T12:24:08;10.95;;;2.63;;
48052;SDS011;33824;51.600;5.718;2023-01-09T12:27:06;10.35;;;3.20;;
48052;SDS011;33824;51.600;5.718;2023-01-09T12:36:31;8.38;;;2.72;;
48052;SDS011;33824;51.600;5.718;2023-01-09T12:47:28;11.40;;;2.53;;
48052;SDS011;33824;51.600;5.718;2023-01-09T12:53:14;5.38;;;2.50;;
48052;SDS011;33824;51.600;5.718;2023-01-09T12:56:03;6.00;;;2.80;;
48052;SDS011;33824;51.600;5.718;2023-01-09T13:01:07;5.40;;;2.03;;
48052;SDS011;33824;51.600;5.718;2023-01-09T13:03:50;7.60;;;2.58;;
48052;SDS011;33824;51.600;5.718;2023-01-09T13:06:18;8.57;;;2.33;;
48052;SDS011;33824;51.600;5.718;2023-01-09T13:08:50;3.83;;;1.73;;
48052;SDS011;33824;51.600;5.718;2023-01-09T13:11:22;7.88;;;2.28;;
48052;SDS011;33824;51.600;5.718;2023-01-09T13:16:36;8.00;;;2.03;;
48052;SDS011;33824;51.600;5.718;2023-01-09T13:21:54;11.07;;;2.53;;
48052;SDS011;33824;51.600;5.718;2023-01-09T13:24:23;7.78;;;2.30;;
48052;SDS011;33824;51.600;5.718;2023-01-09T13:26:58;8.65;;;2.55;;
48052;SDS011;33824;51.600;5.718;2023-01-09T13:29:28;11.65;;;2.63;;
48052;SDS011;33824;51.600;5.718;2023-01-09T13:34:26;10.05;;;2.80;;
48052;SDS011;33824;51.600;5.718;2023-01-09T13:36:55;11.27;;;2.67;;
48052;SDS011;33824;51.600;5.718;2023-01-09T13:39:24;10.93;;;3.72;;
48052;SDS011;33824;51.600;5.718;2023-01-09T13:41:59;11.60;;;3.00;;
48052;SDS011;33824;51.600;5.718;2023-01-09T13:44:45;13.07;;;4.10;;
48052;SDS011;33824;51.600;5.718;2023-01-09T13:50:19;9.52;;;2.90;;
48052;SDS011;33824;51.600;5.718;2023-01-09T13:57:42;11.38;;;3.28;;
48052;SDS011;33824;51.600;5.718;2023-01-09T14:05:11;5.40;;;2.60;;
48052;SDS011;33824;51.600;5.718;2023-01-09T14:07:41;14.65;;;3.20;;
48052;SDS011;33824;51.600;5.718;2023-01-09T14:10:26;6.80;;;2.13;;
48052;SDS011;33824;51.600;5.718;2023-01-09T14:12:55;9.38;;;2.30;;
48052;SDS011;33824;51.600;5.718;2023-01-09T14:15:35;9.65;;;2.53;;
48052;SDS011;33824;51.600;5.718;2023-01-09T14:18:18;11.07;;;2.30;;
48052;SDS011;33824;51.600;5.718;2023-01-09T14:21:01;13.90;;;2.70;;
48052;SDS011;33824;51.600;5.718;2023-01-09T14:26:03;13.02;;;3.15;;
48052;SDS011;33824;51.600;5.718;2023-01-09T14:28:31;10.20;;;2.28;;
48052;SDS011;33824;51.600;5.718;2023-01-09T14:33:25;9.13;;;2.70;;
48052;SDS011;33824;51.600;5.718;2023-01-09T14:36:15;10.40;;;2.72;;
48052;SDS011;33824;51.600;5.718;2023-01-09T14:38:52;12.68;;;3.35;;
48052;SDS011;33824;51.600;5.718;2023-01-09T14:41:24;6.22;;;2.53;;
48052;SDS011;33824;51.600;5.718;2023-01-09T14:46:48;13.93;;;2.92;;
48052;SDS011;33824;51.600;5.718;2023-01-09T14:49:24;11.20;;;3.05;;
48052;SDS011;33824;51.600;5.718;2023-01-09T14:51:57;11.85;;;3.40;;
48052;SDS011;33824;51.600;5.718;2023-01-09T14:54:28;8.55;;;2.58;;
48052;SDS011;33824;51.600;5.718;2023-01-09T14:56:58;14.63;;;3.70;;
48052;SDS011;33824;51.600;5.718;2023-01-09T14:59:25;12.98;;;3.85;;
48052;SDS011;33824;51.600;5.718;2023-01-09T15:01:51;15.75;;;4.25;;
48052;SDS011;33824;51.600;5.718;2023-01-09T15:04:29;5.93;;;2.80;;
48052;SDS011;33824;51.600;5.718;2023-01-09T15:06:59;14.80;;;4.25;;
48052;SDS011;33824;51.600;5.718;2023-01-09T15:11:57;11.50;;;4.35;;
48052;SDS011;33824;51.600;5.718;2023-01-09T15:14:29;11.07;;;3.83;;
48052;SDS011;33824;51.600;5.718;2023-01-09T15:16:58;13.75;;;3.45;;
48052;SDS011;33824;51.600;5.718;2023-01-09T15:19:24;12.15;;;3.55;;
48052;SDS011;33824;51.600;5.718;2023-01-09T15:22:04;15.27;;;3.83;;
48052;SDS011;33824;51.600;5.718;2023-01-09T15:24:31;17.95;;;3.70;;
48052;SDS011;33824;51.600;5.718;2023-01-09T15:27:00;12.05;;;3.42;;
48052;SDS011;33824;51.600;5.718;2023-01-09T15:29:27;13.00;;;2.85;;
48052;SDS011;33824;51.600;5.718;2023-01-09T15:31:54;9.73;;;2.83;;
48052;SDS011;33824;51.600;5.718;2023-01-09T15:34:24;11.17;;;3.33;;
48052;SDS011;33824;51.600;5.718;2023-01-09T15:36:50;8.32;;;2.58;;
48052;SDS011;33824;51.600;5.718;2023-01-09T15:39:18;17.17;;;4.00;;
48052;SDS011;33824;51.600;5.718;2023-01-09T15:41:49;14.02;;;2.13;;
48052;SDS011;33824;51.600;5.718;2023-01-09T15:44:33;8.60;;;1.90;;
48052;SDS011;33824;51.600;5.718;2023-01-09T15:47:04;9.73;;;1.92;;
48052;SDS011;33824;51.600;5.718;2023-01-09T15:49:32;5.68;;;1.73;;
48052;SDS011;33824;51.600;5.718;2023-01-09T15:51:58;9.93;;;1.65;;
48052;SDS011;33824;51.600;5.718;2023-01-09T15:54:31;8.32;;;1.70;;
48052;SDS011;33824;51.600;5.718;2023-01-09T15:59:54;6.40;;;1.60;;
48052;SDS011;33824;51.600;5.718;2023-01-09T16:02:22;11.60;;;1.30;;
48052;SDS011;33824;51.600;5.718;2023-01-09T16:05:11;8.18;;;1.65;;
48052;SDS011;33824;51.600;5.718;2023-01-09T16:07:45;11.95;;;1.70;;
48052;SDS011;33824;51.600;5.718;2023-01-09T16:10:22;5.05;;;1.20;;
48052;SDS011;33824;51.600;5.718;2023-01-09T16:12:49;11.85;;;1.60;;
48052;SDS011;33824;51.600;5.718;2023-01-09T16:15:16;15.75;;;2.55;;
48052;SDS011;33824;51.600;5.718;2023-01-09T16:20:38;5.68;;;1.90;;
48052;SDS011;33824;51.600;5.718;2023-01-09T16:23:20;12.63;;;2.33;;
48052;SDS011;33824;51.600;5.718;2023-01-09T16:26:12;6.60;;;1.25;;
48052;SDS011;33824;51.600;5.718;2023-01-09T16:28:44;8.02;;;1.60;;
48052;SDS011;33824;51.600;5.718;2023-01-09T16:31:28;5.10;;;1.98;;
48052;SDS011;33824;51.600;5.718;2023-01-09T16:33:59;5.38;;;1.48;;
48052;SDS011;33824;51.600;5.718;2023-01-09T16:36:28;4.00;;;0.93;;
48052;SDS011;33824;51.600;5.718;2023-01-09T16:38:54;5.45;;;1.02;;
48052;SDS011;33824;51.600;5.718;2023-01-09T16:41:21;2.58;;;0.95;;
48052;SDS011;33824;51.600;5.718;2023-01-09T16:44:06;7.95;;;1.75;;
48052;SDS011;33824;51.600;5.718;2023-01-09T16:46:37;7.53;;;1.40;;
48052;SDS011;33824;51.600;5.718;2023-01-09T16:49:24;6.20;;;1.00;;
48052;SDS011;33824;51.600;5.718;2023-01-09T16:51:52;5.60;;;1.35;;
48052;SDS011;33824;51.600;5.718;2023-01-09T16:54:19;6.15;;;1.23;;
48052;SDS011;33824;51.600;5.718;2023-01-09T16:56:48;8.73;;;1.38;;
48052;SDS011;33824;51.600;5.718;2023-01-09T16:59:20;8.18;;;1.35;;
48052;SDS011;33824;51.600;5.718;2023-01-09T17:01:50;8.40;;;1.40;;
48052;SDS011;33824;51.600;5.718;2023-01-09T17:04:19;6.07;;;1.40;;
48052;SDS011;33824;51.600;5.718;2023-01-09T17:06:46;3.25;;;0.90;;
48052;SDS011;33824;51.600;5.718;2023-01-09T17:09:14;7.32;;;0.88;;
48052;SDS011;33824;51.600;5.718;2023-01-09T17:11:41;4.68;;;0.90;;
48052;SDS011;33824;51.600;5.718;2023-01-09T17:14:08;9.20;;;1.02;;
48052;SDS011;33824;51.600;5.718;2023-01-09T17:16:36;7.18;;;1.30;;
48052;SDS011;33824;51.600;5.718;2023-01-09T17:19:02;5.10;;;1.20;;